sensor_id;sensor_type;location;lat;lon;timestamp;temperature;humidity
42333;DHT22;27984;51.476;5.702;2023-05-10T00:01:37;13.30;99.90
42333;DHT22;27984;51.476;5.702;2023-05-10T00:04:05;13.30;99.90
42333;DHT22;27984;51.476;5.702;2023-05-10T00:06:31;13.30;99.90
42333;DHT22;27984;51.476;5.702;2023-05-10T00:08:57;13.20;99.90
42333;DHT22;27984;51.476;5.702;2023-05-10T00:11:22;13.20;99.90
42333;DHT22;27984;51.476;5.702;2023-05-10T00:13:48;13.20;99.90
42333;DHT22;27984;51.476;5.702;2023-05-10T00:16:13;13.20;99.90
42333;DHT22;27984;51.476;5.702;2023-05-10T00:18:39;13.20;99.90
42333;DHT22;27984;51.476;5.702;2023-05-10T00:21:05;13.20;99.90
42333;DHT22;27984;51.476;5.702;2023-05-10T00:23:31;13.10;99.90
42333;DHT22;27984;51.476;5.702;2023-05-10T00:25:57;13.20;99.90
42333;DHT22;27984;51.476;5.702;2023-05-10T00:28:22;13.20;99.90
42333;DHT22;27984;51.476;5.702;2023-05-10T00:30:48;13.20;99.90
42333;DHT22;27984;51.476;5.702;2023-05-10T00:33:13;13.20;99.90
42333;DHT22;27984;51.476;5.702;2023-05-10T00:35:39;13.00;99.90
42333;DHT22;27984;51.476;5.702;2023-05-10T00:38:05;13.10;99.90
42333;DHT22;27984;51.476;5.702;2023-05-10T00:40:31;13.10;99.90
42333;DHT22;27984;51.476;5.702;2023-05-10T00:42:57;13.10;99.90
42333;DHT22;27984;51.476;5.702;2023-05-10T00:45:23;13.10;99.90
42333;DHT22;27984;51.476;5.702;2023-05-10T00:47:49;13.20;99.90
42333;DHT22;27984;51.476;5.702;2023-05-10T00:50:15;13.20;99.90
42333;DHT22;27984;51.476;5.702;2023-05-10T00:52:41;13.20;99.90
42333;DHT22;27984;51.476;5.702;2023-05-10T00:55:09;13.00;99.90
42333;DHT22;27984;51.476;5.702;2023-05-10T00:57:36;13.00;99.90
42333;DHT22;27984;51.476;5.702;2023-05-10T01:00:02;13.00;99.90
42333;DHT22;27984;51.476;5.702;2023-05-10T01:02:28;13.00;99.90
42333;DHT22;27984;51.476;5.702;2023-05-10T01:04:54;13.00;99.90
42333;DHT22;27984;51.476;5.702;2023-05-10T01:07:20;12.90;99.90
42333;DHT22;27984;51.476;5.702;2023-05-10T01:09:45;13.00;99.90
42333;DHT22;27984;51.476;5.702;2023-05-10T01:12:11;13.00;99.90
42333;DHT22;27984;51.476;5.702;2023-05-10T01:14:37;13.10;99.90
42333;DHT22;27984;51.476;5.702;2023-05-10T01:17:04;13.10;99.90
42333;DHT22;27984;51.476;5.702;2023-05-10T01:19:31;13.00;99.90
42333;DHT22;27984;51.476;5.702;2023-05-10T01:25:11;13.00;99.90
42333;DHT22;27984;51.476;5.702;2023-05-10T01:30:51;12.90;99.90
42333;DHT22;27984;51.476;5.702;2023-05-10T01:33:39;12.80;99.90
42333;DHT22;27984;51.476;5.702;2023-05-10T01:36:19;12.80;99.90
42333;DHT22;27984;51.476;5.702;2023-05-10T01:41:49;12.90;99.90
42333;DHT22;27984;51.476;5.702;2023-05-10T01:44:46;12.90;99.90
42333;DHT22;27984;51.476;5.702;2023-05-10T01:47:25;13.00;99.90
42333;DHT22;27984;51.476;5.702;2023-05-10T01:49:55;13.00;99.90
42333;DHT22;27984;51.476;5.702;2023-05-10T01:52:33;13.00;99.90
42333;DHT22;27984;51.476;5.702;2023-05-10T01:55:05;13.00;99.90
42333;DHT22;27984;51.476;5.702;2023-05-10T01:57:36;13.00;99.90
42333;DHT22;27984;51.476;5.702;2023-05-10T02:00:05;13.10;99.90
42333;DHT22;27984;51.476;5.702;2023-05-10T02:02:37;13.10;99.90
42333;DHT22;27984;51.476;5.702;2023-05-10T02:05:05;13.10;99.90
42333;DHT22;27984;51.476;5.702;2023-05-10T02:07:34;13.10;99.90
42333;DHT22;27984;51.476;5.702;2023-05-10T02:10:02;13.10;99.90
42333;DHT22;27984;51.476;5.702;2023-05-10T02:12:28;13.20;99.90
42333;DHT22;27984;51.476;5.702;2023-05-10T02:14:55;13.20;99.90
42333;DHT22;27984;51.476;5.702;2023-05-10T02:17:21;13.20;99.90
42333;DHT22;27984;51.476;5.702;2023-05-10T02:19:48;13.30;99.90
42333;DHT22;27984;51.476;5.702;2023-05-10T02:22:16;13.20;99.90
42333;DHT22;27984;51.476;5.702;2023-05-10T02:24:43;13.20;99.90
42333;DHT22;27984;51.476;5.702;2023-05-10T02:27:10;13.20;99.90
42333;DHT22;27984;51.476;5.702;2023-05-10T02:29:37;13.20;99.90
42333;DHT22;27984;51.476;5.702;2023-05-10T02:32:03;13.30;99.90
42333;DHT22;27984;51.476;5.702;2023-05-10T02:34:29;13.30;99.90
42333;DHT22;27984;51.476;5.702;2023-05-10T02:36:55;13.20;99.90
42333;DHT22;27984;51.476;5.702;2023-05-10T02:39:22;13.30;99.90
42333;DHT22;27984;51.476;5.702;2023-05-10T02:41:49;13.30;99.90
42333;DHT22;27984;51.476;5.702;2023-05-10T02:44:17;13.30;99.90
42333;DHT22;27984;51.476;5.702;2023-05-10T02:46:43;13.20;99.90
42333;DHT22;27984;51.476;5.702;2023-05-10T02:49:09;13.30;99.90
42333;DHT22;27984;51.476;5.702;2023-05-10T02:51:39;13.20;99.90
42333;DHT22;27984;51.476;5.702;2023-05-10T02:54:15;13.10;99.90
42333;DHT22;27984;51.476;5.702;2023-05-10T02:56:47;13.20;99.90
42333;DHT22;27984;51.476;5.702;2023-05-10T02:59:15;13.30;99.90
42333;DHT22;27984;51.476;5.702;2023-05-10T03:01:41;13.20;99.90
42333;DHT22;27984;51.476;5.702;2023-05-10T03:04:07;13.20;99.90
42333;DHT22;27984;51.476;5.702;2023-05-10T03:06:32;13.30;99.90
42333;DHT22;27984;51.476;5.702;2023-05-10T03:08:58;13.30;99.90
42333;DHT22;27984;51.476;5.702;2023-05-10T03:11:36;13.20;99.90
42333;DHT22;27984;51.476;5.702;2023-05-10T03:14:42;13.30;99.90
42333;DHT22;27984;51.476;5.702;2023-05-10T03:19:58;13.20;99.90
42333;DHT22;27984;51.476;5.702;2023-05-10T03:22:33;13.20;99.90
42333;DHT22;27984;51.476;5.702;2023-05-10T03:25:00;13.10;99.90
42333;DHT22;27984;51.476;5.702;2023-05-10T03:27:30;13.20;99.90
42333;DHT22;27984;51.476;5.702;2023-05-10T03:29:57;13.20;99.90
42333;DHT22;27984;51.476;5.702;2023-05-10T03:32:23;13.20;99.90
42333;DHT22;27984;51.476;5.702;2023-05-10T03:34:48;13.20;99.90
42333;DHT22;27984;51.476;5.702;2023-05-10T03:37:14;13.10;99.90
42333;DHT22;27984;51.476;5.702;2023-05-10T03:39:40;13.10;99.90
42333;DHT22;27984;51.476;5.702;2023-05-10T03:42:05;13.00;99.90
42333;DHT22;27984;51.476;5.702;2023-05-10T03:44:31;13.10;99.90
42333;DHT22;27984;51.476;5.702;2023-05-10T03:46:58;13.00;99.90
42333;DHT22;27984;51.476;5.702;2023-05-10T03:49:24;13.10;99.90
42333;DHT22;27984;51.476;5.702;2023-05-10T03:51:49;13.10;99.90
42333;DHT22;27984;51.476;5.702;2023-05-10T03:54:15;13.00;99.90
42333;DHT22;27984;51.476;5.702;2023-05-10T03:56:40;13.10;99.90
42333;DHT22;27984;51.476;5.702;2023-05-10T03:59:06;13.00;99.90
42333;DHT22;27984;51.476;5.702;2023-05-10T04:01:34;13.10;99.90
42333;DHT22;27984;51.476;5.702;2023-05-10T04:04:00;13.10;99.90
42333;DHT22;27984;51.476;5.702;2023-05-10T04:06:26;13.10;99.90
42333;DHT22;27984;51.476;5.702;2023-05-10T04:08:51;13.00;99.90
42333;DHT22;27984;51.476;5.702;2023-05-10T04:11:17;13.10;99.90
42333;DHT22;27984;51.476;5.702;2023-05-10T04:13:42;13.10;99.90
42333;DHT22;27984;51.476;5.702;2023-05-10T04:16:08;13.10;99.90
42333;DHT22;27984;51.476;5.702;2023-05-10T04:18:34;13.10;99.90
42333;DHT22;27984;51.476;5.702;2023-05-10T04:21:00;13.10;99.90
42333;DHT22;27984;51.476;5.702;2023-05-10T04:23:26;13.10;99.90
42333;DHT22;27984;51.476;5.702;2023-05-10T04:25:52;13.10;99.90
42333;DHT22;27984;51.476;5.702;2023-05-10T04:28:17;13.10;99.90
42333;DHT22;27984;51.476;5.702;2023-05-10T04:30:43;13.10;99.90
42333;DHT22;27984;51.476;5.702;2023-05-10T04:33:09;13.00;99.90
42333;DHT22;27984;51.476;5.702;2023-05-10T04:35:34;13.00;99.90
42333;DHT22;27984;51.476;5.702;2023-05-10T04:38:00;13.00;99.90
42333;DHT22;27984;51.476;5.702;2023-05-10T04:40:26;13.10;99.90
42333;DHT22;27984;51.476;5.702;2023-05-10T04:42:51;13.10;99.90
42333;DHT22;27984;51.476;5.702;2023-05-10T04:45:17;13.00;99.90
42333;DHT22;27984;51.476;5.702;2023-05-10T04:47:42;13.10;99.90
42333;DHT22;27984;51.476;5.702;2023-05-10T04:50:08;13.20;99.90
42333;DHT22;27984;51.476;5.702;2023-05-10T04:52:34;13.10;99.90
42333;DHT22;27984;51.476;5.702;2023-05-10T04:54:59;13.20;99.90
42333;DHT22;27984;51.476;5.702;2023-05-10T04:57:25;13.20;99.90
42333;DHT22;27984;51.476;5.702;2023-05-10T04:59:50;13.10;99.90
42333;DHT22;27984;51.476;5.702;2023-05-10T05:02:16;13.10;99.90
42333;DHT22;27984;51.476;5.702;2023-05-10T05:04:41;13.20;99.90
42333;DHT22;27984;51.476;5.702;2023-05-10T05:07:07;13.20;99.90
42333;DHT22;27984;51.476;5.702;2023-05-10T05:09:32;13.20;99.90
42333;DHT22;27984;51.476;5.702;2023-05-10T05:11:58;13.20;99.90
42333;DHT22;27984;51.476;5.702;2023-05-10T05:14:24;13.10;99.90
42333;DHT22;27984;51.476;5.702;2023-05-10T05:16:51;13.10;99.90
42333;DHT22;27984;51.476;5.702;2023-05-10T05:19:16;13.10;99.90
42333;DHT22;27984;51.476;5.702;2023-05-10T05:21:42;13.10;99.90
42333;DHT22;27984;51.476;5.702;2023-05-10T05:24:07;13.10;99.90
42333;DHT22;27984;51.476;5.702;2023-05-10T05:26:33;13.10;99.90
42333;DHT22;27984;51.476;5.702;2023-05-10T05:28:59;13.10;99.90
42333;DHT22;27984;51.476;5.702;2023-05-10T05:31:24;13.10;99.90
42333;DHT22;27984;51.476;5.702;2023-05-10T05:33:50;13.00;99.90
42333;DHT22;27984;51.476;5.702;2023-05-10T05:36:16;13.00;99.90
42333;DHT22;27984;51.476;5.702;2023-05-10T05:38:41;12.90;99.90
42333;DHT22;27984;51.476;5.702;2023-05-10T05:41:08;13.10;99.90
42333;DHT22;27984;51.476;5.702;2023-05-10T05:43:33;13.00;99.90
42333;DHT22;27984;51.476;5.702;2023-05-10T05:45:59;13.10;99.90
42333;DHT22;27984;51.476;5.702;2023-05-10T05:54:37;13.40;99.90
42333;DHT22;27984;51.476;5.702;2023-05-10T05:57:03;13.40;99.90
42333;DHT22;27984;51.476;5.702;2023-05-10T05:59:28;13.50;99.90
42333;DHT22;27984;51.476;5.702;2023-05-10T06:01:54;13.50;99.90
42333;DHT22;27984;51.476;5.702;2023-05-10T06:04:19;13.50;99.90
42333;DHT22;27984;51.476;5.702;2023-05-10T06:06:45;13.50;99.90
42333;DHT22;27984;51.476;5.702;2023-05-10T06:09:10;13.60;99.90
42333;DHT22;27984;51.476;5.702;2023-05-10T06:11:36;13.50;99.90
42333;DHT22;27984;51.476;5.702;2023-05-10T06:14:03;13.50;99.90
42333;DHT22;27984;51.476;5.702;2023-05-10T06:16:35;13.40;99.90
42333;DHT22;27984;51.476;5.702;2023-05-10T06:19:01;13.60;99.90
42333;DHT22;27984;51.476;5.702;2023-05-10T06:21:27;13.60;99.90
42333;DHT22;27984;51.476;5.702;2023-05-10T06:23:53;13.60;99.90
42333;DHT22;27984;51.476;5.702;2023-05-10T06:26:18;13.70;99.90
42333;DHT22;27984;51.476;5.702;2023-05-10T06:28:44;13.70;99.90
42333;DHT22;27984;51.476;5.702;2023-05-10T06:31:09;13.70;99.90
42333;DHT22;27984;51.476;5.702;2023-05-10T06:33:36;13.60;99.90
42333;DHT22;27984;51.476;5.702;2023-05-10T06:36:02;13.60;99.90
42333;DHT22;27984;51.476;5.702;2023-05-10T06:38:27;13.60;99.90
42333;DHT22;27984;51.476;5.702;2023-05-10T06:40:53;13.60;99.90
42333;DHT22;27984;51.476;5.702;2023-05-10T06:43:18;13.60;99.90
42333;DHT22;27984;51.476;5.702;2023-05-10T06:45:44;13.60;99.90
42333;DHT22;27984;51.476;5.702;2023-05-10T06:48:09;13.60;99.90
42333;DHT22;27984;51.476;5.702;2023-05-10T06:50:35;13.70;99.90
42333;DHT22;27984;51.476;5.702;2023-05-10T06:53:01;13.60;99.90
42333;DHT22;27984;51.476;5.702;2023-05-10T06:55:27;13.60;99.90
42333;DHT22;27984;51.476;5.702;2023-05-10T06:57:53;13.60;99.90
42333;DHT22;27984;51.476;5.702;2023-05-10T07:00:19;13.50;99.90
42333;DHT22;27984;51.476;5.702;2023-05-10T07:02:45;13.50;99.90
42333;DHT22;27984;51.476;5.702;2023-05-10T07:05:10;13.60;99.90
42333;DHT22;27984;51.476;5.702;2023-05-10T07:07:36;13.60;99.90
42333;DHT22;27984;51.476;5.702;2023-05-10T07:10:02;13.70;99.90
42333;DHT22;27984;51.476;5.702;2023-05-10T07:12:28;13.60;99.90
42333;DHT22;27984;51.476;5.702;2023-05-10T07:14:53;13.70;99.90
42333;DHT22;27984;51.476;5.702;2023-05-10T07:17:19;13.80;99.90
42333;DHT22;27984;51.476;5.702;2023-05-10T07:19:45;13.80;99.90
42333;DHT22;27984;51.476;5.702;2023-05-10T07:22:10;13.80;99.90
42333;DHT22;27984;51.476;5.702;2023-05-10T07:24:36;13.80;99.90
42333;DHT22;27984;51.476;5.702;2023-05-10T07:27:02;13.80;99.90
42333;DHT22;27984;51.476;5.702;2023-05-10T07:29:27;13.80;99.90
42333;DHT22;27984;51.476;5.702;2023-05-10T07:31:53;13.80;99.90
42333;DHT22;27984;51.476;5.702;2023-05-10T07:34:19;13.80;99.90
42333;DHT22;27984;51.476;5.702;2023-05-10T07:36:45;13.80;99.90
42333;DHT22;27984;51.476;5.702;2023-05-10T07:39:10;13.80;99.90
42333;DHT22;27984;51.476;5.702;2023-05-10T07:41:36;13.90;99.90
42333;DHT22;27984;51.476;5.702;2023-05-10T07:44:03;14.00;99.90
42333;DHT22;27984;51.476;5.702;2023-05-10T07:46:29;14.00;99.90
42333;DHT22;27984;51.476;5.702;2023-05-10T07:48:54;14.10;99.90
42333;DHT22;27984;51.476;5.702;2023-05-10T07:51:20;14.30;99.90
42333;DHT22;27984;51.476;5.702;2023-05-10T07:53:45;14.40;99.90
42333;DHT22;27984;51.476;5.702;2023-05-10T07:56:21;14.30;99.90
42333;DHT22;27984;51.476;5.702;2023-05-10T07:58:47;14.20;99.90
42333;DHT22;27984;51.476;5.702;2023-05-10T08:01:12;14.30;99.90
42333;DHT22;27984;51.476;5.702;2023-05-10T08:03:38;14.30;99.90
42333;DHT22;27984;51.476;5.702;2023-05-10T08:06:03;14.20;99.90
42333;DHT22;27984;51.476;5.702;2023-05-10T08:08:29;14.20;99.90
42333;DHT22;27984;51.476;5.702;2023-05-10T08:10:54;14.20;99.90
42333;DHT22;27984;51.476;5.702;2023-05-10T08:13:21;14.10;99.90
42333;DHT22;27984;51.476;5.702;2023-05-10T08:15:46;14.00;99.90
42333;DHT22;27984;51.476;5.702;2023-05-10T08:18:12;14.00;99.90
42333;DHT22;27984;51.476;5.702;2023-05-10T08:20:38;14.00;99.90
42333;DHT22;27984;51.476;5.702;2023-05-10T08:23:03;13.90;99.90
42333;DHT22;27984;51.476;5.702;2023-05-10T08:25:29;14.00;99.90
42333;DHT22;27984;51.476;5.702;2023-05-10T08:27:54;14.00;99.90
42333;DHT22;27984;51.476;5.702;2023-05-10T08:30:20;13.90;99.90
42333;DHT22;27984;51.476;5.702;2023-05-10T08:32:45;14.00;99.90
42333;DHT22;27984;51.476;5.702;2023-05-10T08:35:11;13.90;99.90
42333;DHT22;27984;51.476;5.702;2023-05-10T08:37:36;13.90;99.90
42333;DHT22;27984;51.476;5.702;2023-05-10T08:40:02;13.80;99.90
42333;DHT22;27984;51.476;5.702;2023-05-10T08:42:30;13.80;99.90
42333;DHT22;27984;51.476;5.702;2023-05-10T08:45:00;13.70;99.90
42333;DHT22;27984;51.476;5.702;2023-05-10T08:47:27;13.80;99.90
42333;DHT22;27984;51.476;5.702;2023-05-10T08:49:54;13.70;99.90
42333;DHT22;27984;51.476;5.702;2023-05-10T08:52:21;13.80;99.90
42333;DHT22;27984;51.476;5.702;2023-05-10T08:54:49;13.70;99.90
42333;DHT22;27984;51.476;5.702;2023-05-10T08:57:15;13.70;99.90
42333;DHT22;27984;51.476;5.702;2023-05-10T08:59:40;13.80;99.90
42333;DHT22;27984;51.476;5.702;2023-05-10T09:02:06;13.90;99.90
42333;DHT22;27984;51.476;5.702;2023-05-10T09:04:35;14.00;99.90
42333;DHT22;27984;51.476;5.702;2023-05-10T09:07:01;14.00;99.90
42333;DHT22;27984;51.476;5.702;2023-05-10T09:09:27;14.10;99.90
42333;DHT22;27984;51.476;5.702;2023-05-10T09:11:53;14.00;99.90
42333;DHT22;27984;51.476;5.702;2023-05-10T09:14:19;14.00;99.90
42333;DHT22;27984;51.476;5.702;2023-05-10T09:16:45;14.00;99.90
42333;DHT22;27984;51.476;5.702;2023-05-10T09:19:11;14.10;99.90
42333;DHT22;27984;51.476;5.702;2023-05-10T09:21:37;14.20;99.90
42333;DHT22;27984;51.476;5.702;2023-05-10T09:24:07;14.40;99.90
42333;DHT22;27984;51.476;5.702;2023-05-10T09:26:33;14.50;99.90
42333;DHT22;27984;51.476;5.702;2023-05-10T09:29:00;14.50;99.90
42333;DHT22;27984;51.476;5.702;2023-05-10T09:31:47;14.70;99.90
42333;DHT22;27984;51.476;5.702;2023-05-10T09:34:19;14.70;99.90
42333;DHT22;27984;51.476;5.702;2023-05-10T09:36:53;14.90;99.90
42333;DHT22;27984;51.476;5.702;2023-05-10T09:39:19;14.90;99.90
42333;DHT22;27984;51.476;5.702;2023-05-10T09:41:45;15.10;99.90
42333;DHT22;27984;51.476;5.702;2023-05-10T09:44:11;15.40;99.90
42333;DHT22;27984;51.476;5.702;2023-05-10T09:46:36;16.10;99.90
42333;DHT22;27984;51.476;5.702;2023-05-10T09:49:02;17.00;99.90
42333;DHT22;27984;51.476;5.702;2023-05-10T09:51:27;17.30;99.90
42333;DHT22;27984;51.476;5.702;2023-05-10T09:54:16;17.50;99.90
42333;DHT22;27984;51.476;5.702;2023-05-10T09:56:42;17.80;99.90
42333;DHT22;27984;51.476;5.702;2023-05-10T09:59:10;17.80;99.90
42333;DHT22;27984;51.476;5.702;2023-05-10T10:01:36;17.30;99.90
42333;DHT22;27984;51.476;5.702;2023-05-10T10:04:06;16.90;99.90
42333;DHT22;27984;51.476;5.702;2023-05-10T10:06:39;16.90;99.90
42333;DHT22;27984;51.476;5.702;2023-05-10T10:09:06;16.40;99.90
42333;DHT22;27984;51.476;5.702;2023-05-10T10:11:35;16.40;99.90
42333;DHT22;27984;51.476;5.702;2023-05-10T10:14:01;16.40;99.90
42333;DHT22;27984;51.476;5.702;2023-05-10T10:16:29;16.70;99.90
42333;DHT22;27984;51.476;5.702;2023-05-10T10:18:55;17.30;99.90
42333;DHT22;27984;51.476;5.702;2023-05-10T10:21:21;18.30;99.90
42333;DHT22;27984;51.476;5.702;2023-05-10T10:23:47;19.30;99.90
42333;DHT22;27984;51.476;5.702;2023-05-10T10:26:13;19.70;99.90
42333;DHT22;27984;51.476;5.702;2023-05-10T10:31:39;18.90;99.90
42333;DHT22;27984;51.476;5.702;2023-05-10T10:34:07;18.60;99.90
42333;DHT22;27984;51.476;5.702;2023-05-10T10:36:40;18.30;99.90
42333;DHT22;27984;51.476;5.702;2023-05-10T10:39:10;18.10;99.90
42333;DHT22;27984;51.476;5.702;2023-05-10T10:41:38;18.10;99.90
42333;DHT22;27984;51.476;5.702;2023-05-10T10:44:25;17.80;99.90
42333;DHT22;27984;51.476;5.702;2023-05-10T10:49:38;17.10;99.90
42333;DHT22;27984;51.476;5.702;2023-05-10T10:55:08;16.60;99.90
42333;DHT22;27984;51.476;5.702;2023-05-10T10:57:47;16.70;99.90
42333;DHT22;27984;51.476;5.702;2023-05-10T11:00:21;17.10;99.90
42333;DHT22;27984;51.476;5.702;2023-05-10T11:02:53;17.30;99.90
42333;DHT22;27984;51.476;5.702;2023-05-10T11:07:55;17.70;99.90
42333;DHT22;27984;51.476;5.702;2023-05-10T11:10:25;18.20;99.90
42333;DHT22;27984;51.476;5.702;2023-05-10T11:13:10;18.90;99.90
42333;DHT22;27984;51.476;5.702;2023-05-10T11:15:39;19.50;99.90
42333;DHT22;27984;51.476;5.702;2023-05-10T11:18:19;20.40;99.90
42333;DHT22;27984;51.476;5.702;2023-05-10T11:21:08;21.20;99.90
42333;DHT22;27984;51.476;5.702;2023-05-10T11:26:07;22.40;99.90
42333;DHT22;27984;51.476;5.702;2023-05-10T11:28:47;22.30;99.90
42333;DHT22;27984;51.476;5.702;2023-05-10T11:31:14;21.20;99.90
42333;DHT22;27984;51.476;5.702;2023-05-10T11:36:18;19.70;99.90
42333;DHT22;27984;51.476;5.702;2023-05-10T11:38:44;19.10;99.90
42333;DHT22;27984;51.476;5.702;2023-05-10T11:41:11;18.80;99.90
42333;DHT22;27984;51.476;5.702;2023-05-10T11:43:38;18.70;99.90
42333;DHT22;27984;51.476;5.702;2023-05-10T11:46:12;18.70;99.90
42333;DHT22;27984;51.476;5.702;2023-05-10T11:48:42;18.70;99.90
42333;DHT22;27984;51.476;5.702;2023-05-10T11:51:08;18.60;99.90
42333;DHT22;27984;51.476;5.702;2023-05-10T11:53:34;18.70;99.90
42333;DHT22;27984;51.476;5.702;2023-05-10T11:56:07;18.90;99.90
42333;DHT22;27984;51.476;5.702;2023-05-10T11:58:33;18.90;99.90
42333;DHT22;27984;51.476;5.702;2023-05-10T12:00:59;19.00;99.90
42333;DHT22;27984;51.476;5.702;2023-05-10T12:03:26;19.20;99.90
42333;DHT22;27984;51.476;5.702;2023-05-10T12:05:52;19.10;99.90
42333;DHT22;27984;51.476;5.702;2023-05-10T12:08:24;19.30;99.90
42333;DHT22;27984;51.476;5.702;2023-05-10T12:10:50;19.50;99.90
42333;DHT22;27984;51.476;5.702;2023-05-10T12:13:17;19.40;99.90
42333;DHT22;27984;51.476;5.702;2023-05-10T12:15:43;19.50;99.90
42333;DHT22;27984;51.476;5.702;2023-05-10T12:18:10;19.80;99.90
42333;DHT22;27984;51.476;5.702;2023-05-10T12:20:37;19.60;99.90
42333;DHT22;27984;51.476;5.702;2023-05-10T12:23:02;19.00;99.90
42333;DHT22;27984;51.476;5.702;2023-05-10T12:25:38;18.70;99.90
42333;DHT22;27984;51.476;5.702;2023-05-10T12:28:05;18.70;99.90
42333;DHT22;27984;51.476;5.702;2023-05-10T12:30:32;18.70;99.90
42333;DHT22;27984;51.476;5.702;2023-05-10T12:33:14;18.40;99.90
42333;DHT22;27984;51.476;5.702;2023-05-10T12:35:46;17.90;99.90
42333;DHT22;27984;51.476;5.702;2023-05-10T12:38:32;17.50;99.90
42333;DHT22;27984;51.476;5.702;2023-05-10T12:41:02;17.10;99.90
42333;DHT22;27984;51.476;5.702;2023-05-10T12:43:29;16.70;99.90
42333;DHT22;27984;51.476;5.702;2023-05-10T12:45:55;16.30;99.90
42333;DHT22;27984;51.476;5.702;2023-05-10T12:48:21;16.10;99.90
42333;DHT22;27984;51.476;5.702;2023-05-10T12:50:46;16.00;99.90
42333;DHT22;27984;51.476;5.702;2023-05-10T12:53:14;15.90;99.90
42333;DHT22;27984;51.476;5.702;2023-05-10T12:55:41;15.80;99.90
42333;DHT22;27984;51.476;5.702;2023-05-10T12:58:07;15.60;99.90
42333;DHT22;27984;51.476;5.702;2023-05-10T13:00:32;15.60;99.90
42333;DHT22;27984;51.476;5.702;2023-05-10T13:02:58;15.70;99.90
42333;DHT22;27984;51.476;5.702;2023-05-10T13:05:23;15.60;99.90
42333;DHT22;27984;51.476;5.702;2023-05-10T13:07:49;15.60;99.90
42333;DHT22;27984;51.476;5.702;2023-05-10T13:10:14;15.60;99.90
42333;DHT22;27984;51.476;5.702;2023-05-10T13:12:40;15.70;99.90
42333;DHT22;27984;51.476;5.702;2023-05-10T13:15:06;15.70;99.90
42333;DHT22;27984;51.476;5.702;2023-05-10T13:17:32;15.70;99.90
42333;DHT22;27984;51.476;5.702;2023-05-10T13:19:57;15.80;99.90
42333;DHT22;27984;51.476;5.702;2023-05-10T13:22:23;15.90;99.90
42333;DHT22;27984;51.476;5.702;2023-05-10T13:24:48;16.10;99.90
42333;DHT22;27984;51.476;5.702;2023-05-10T13:27:14;16.40;99.90
42333;DHT22;27984;51.476;5.702;2023-05-10T13:29:39;16.50;99.90
42333;DHT22;27984;51.476;5.702;2023-05-10T13:32:05;16.80;99.90
42333;DHT22;27984;51.476;5.702;2023-05-10T13:34:30;16.90;99.90
42333;DHT22;27984;51.476;5.702;2023-05-10T13:36:56;16.80;99.90
42333;DHT22;27984;51.476;5.702;2023-05-10T13:39:22;16.70;99.90
42333;DHT22;27984;51.476;5.702;2023-05-10T13:41:48;16.70;99.90
42333;DHT22;27984;51.476;5.702;2023-05-10T13:44:14;16.70;99.90
42333;DHT22;27984;51.476;5.702;2023-05-10T13:46:40;16.60;99.90
42333;DHT22;27984;51.476;5.702;2023-05-10T13:49:06;16.60;99.90
42333;DHT22;27984;51.476;5.702;2023-05-10T13:51:33;16.60;99.90
42333;DHT22;27984;51.476;5.702;2023-05-10T13:53:59;16.50;99.90
42333;DHT22;27984;51.476;5.702;2023-05-10T13:56:24;16.20;99.90
42333;DHT22;27984;51.476;5.702;2023-05-10T13:58:50;15.90;99.90
42333;DHT22;27984;51.476;5.702;2023-05-10T14:01:15;15.90;99.90
42333;DHT22;27984;51.476;5.702;2023-05-10T14:03:41;15.80;99.90
42333;DHT22;27984;51.476;5.702;2023-05-10T14:06:07;15.70;99.90
42333;DHT22;27984;51.476;5.702;2023-05-10T14:08:34;15.80;99.90
42333;DHT22;27984;51.476;5.702;2023-05-10T14:11:00;15.90;99.90
42333;DHT22;27984;51.476;5.702;2023-05-10T14:13:25;15.90;99.90
42333;DHT22;27984;51.476;5.702;2023-05-10T14:15:52;15.90;99.90
42333;DHT22;27984;51.476;5.702;2023-05-10T14:18:17;15.90;99.90
42333;DHT22;27984;51.476;5.702;2023-05-10T14:20:43;15.70;99.90
42333;DHT22;27984;51.476;5.702;2023-05-10T14:23:08;15.60;99.90
42333;DHT22;27984;51.476;5.702;2023-05-10T14:25:34;15.60;99.90
42333;DHT22;27984;51.476;5.702;2023-05-10T14:28:00;15.50;99.90
42333;DHT22;27984;51.476;5.702;2023-05-10T14:30:25;15.50;99.90
42333;DHT22;27984;51.476;5.702;2023-05-10T14:32:51;15.20;99.90
42333;DHT22;27984;51.476;5.702;2023-05-10T14:35:18;15.30;99.90
42333;DHT22;27984;51.476;5.702;2023-05-10T14:37:43;15.20;99.90
42333;DHT22;27984;51.476;5.702;2023-05-10T14:40:09;15.20;99.90
42333;DHT22;27984;51.476;5.702;2023-05-10T14:42:35;15.10;99.90
42333;DHT22;27984;51.476;5.702;2023-05-10T14:45:00;15.00;99.90
42333;DHT22;27984;51.476;5.702;2023-05-10T14:47:26;15.00;99.90
42333;DHT22;27984;51.476;5.702;2023-05-10T14:49:51;14.90;99.90
42333;DHT22;27984;51.476;5.702;2023-05-10T14:52:17;14.80;99.90
42333;DHT22;27984;51.476;5.702;2023-05-10T14:54:42;14.70;99.90
42333;DHT22;27984;51.476;5.702;2023-05-10T14:57:08;14.60;99.90
42333;DHT22;27984;51.476;5.702;2023-05-10T14:59:33;14.60;99.90
42333;DHT22;27984;51.476;5.702;2023-05-10T15:01:59;14.60;99.90
42333;DHT22;27984;51.476;5.702;2023-05-10T15:04:24;14.60;99.90
42333;DHT22;27984;51.476;5.702;2023-05-10T15:06:50;14.60;99.90
42333;DHT22;27984;51.476;5.702;2023-05-10T15:09:15;14.70;99.90
42333;DHT22;27984;51.476;5.702;2023-05-10T15:11:41;14.60;99.90
42333;DHT22;27984;51.476;5.702;2023-05-10T15:14:07;14.70;99.90
42333;DHT22;27984;51.476;5.702;2023-05-10T15:16:32;14.80;99.90
42333;DHT22;27984;51.476;5.702;2023-05-10T15:18:58;14.90;99.90
42333;DHT22;27984;51.476;5.702;2023-05-10T15:21:23;15.00;99.90
42333;DHT22;27984;51.476;5.702;2023-05-10T15:23:49;15.10;99.90
42333;DHT22;27984;51.476;5.702;2023-05-10T15:26:15;15.10;99.90
42333;DHT22;27984;51.476;5.702;2023-05-10T15:28:40;15.20;99.90
42333;DHT22;27984;51.476;5.702;2023-05-10T15:31:06;15.20;99.90
42333;DHT22;27984;51.476;5.702;2023-05-10T15:33:31;15.20;99.90
42333;DHT22;27984;51.476;5.702;2023-05-10T15:35:57;15.30;99.90
42333;DHT22;27984;51.476;5.702;2023-05-10T15:38:23;15.30;99.90
42333;DHT22;27984;51.476;5.702;2023-05-10T15:40:48;15.30;99.90
42333;DHT22;27984;51.476;5.702;2023-05-10T15:43:14;15.40;99.90
42333;DHT22;27984;51.476;5.702;2023-05-10T15:45:40;15.40;99.90
42333;DHT22;27984;51.476;5.702;2023-05-10T15:48:05;15.40;99.90
42333;DHT22;27984;51.476;5.702;2023-05-10T15:50:31;15.40;99.90
42333;DHT22;27984;51.476;5.702;2023-05-10T15:52:57;15.40;99.90
42333;DHT22;27984;51.476;5.702;2023-05-10T15:55:22;15.40;99.90
42333;DHT22;27984;51.476;5.702;2023-05-10T15:57:48;15.40;99.90
42333;DHT22;27984;51.476;5.702;2023-05-10T16:00:15;15.30;99.90
42333;DHT22;27984;51.476;5.702;2023-05-10T16:02:40;15.20;99.90
42333;DHT22;27984;51.476;5.702;2023-05-10T16:05:07;15.20;99.90